createdAt,value
2023-06-07T00:01:17.582Z,96.32
2023-06-07T00:03:50.555Z,96.32
2023-06-07T00:06:21.680Z,96.38
2023-06-07T00:08:52.144Z,96.60
2023-06-07T00:11:24.064Z,96.86
2023-06-07T00:13:55.619Z,96.78
2023-06-07T00:16:25.904Z,97.04
2023-06-07T00:18:56.300Z,97.43
2023-06-07T00:21:29.695Z,97.72
2023-06-07T00:24:00.284Z,97.62
2023-06-07T00:26:30.959Z,97.67
2023-06-07T00:29:01.400Z,97.58
2023-06-07T00:31:31.691Z,97.57
2023-06-07T00:34:02.184Z,97.94
2023-06-07T00:36:35.527Z,98.56
2023-06-07T00:39:06.610Z,98.58
2023-06-07T00:41:37.760Z,98.61
2023-06-07T00:44:08.181Z,98.94
2023-06-07T00:46:38.601Z,98.79
2023-06-07T00:49:09.682Z,98.83
2023-06-07T00:51:40.668Z,98.99
2023-06-07T00:54:11.482Z,98.94
2023-06-07T00:56:41.638Z,99.09
2023-06-07T00:59:11.941Z,98.98
2023-06-07T01:01:46.696Z,99.28
2023-06-07T01:04:21.746Z,99.50
2023-06-07T01:06:51.923Z,99.60
2023-06-07T01:09:24.596Z,99.63
2023-06-07T01:12:00.980Z,99.62
2023-06-07T01:14:34.017Z,99.53
2023-06-07T01:17:27.330Z,99.86
2023-06-07T01:19:59.735Z,99.72
2023-06-07T01:22:32.755Z,99.87
2023-06-07T01:25:03.235Z,99.99
2023-06-07T01:27:39.392Z,99.92
2023-06-07T01:30:12.799Z,99.99
2023-06-07T01:32:45.408Z,99.99
2023-06-07T01:35:16.229Z,99.99
2023-06-07T01:37:50.016Z,99.99
2023-06-07T01:40:20.759Z,99.99
2023-06-07T01:42:52.465Z,99.99
2023-06-07T01:45:24.256Z,99.99
2023-06-07T01:47:54.987Z,99.99
2023-06-07T01:50:26.326Z,99.99
2023-06-07T01:52:56.762Z,99.99
2023-06-07T01:55:27.883Z,99.99
2023-06-07T01:58:25.355Z,99.99
2023-06-07T02:01:12.332Z,99.99
2023-06-07T02:03:47.959Z,99.99
2023-06-07T02:06:27.334Z,99.99
2023-06-07T02:09:00.321Z,99.99
2023-06-07T02:11:32.892Z,99.99
2023-06-07T02:14:05.394Z,99.99
2023-06-07T02:16:39.587Z,99.99
2023-06-07T02:19:13.676Z,99.99
2023-06-07T02:21:52.866Z,99.99
2023-06-07T02:24:23.063Z,99.99
2023-06-07T02:26:56.231Z,99.99
2023-06-07T02:29:26.942Z,99.99
2023-06-07T02:32:00.295Z,99.99
2023-06-07T02:34:34.842Z,99.99
2023-06-07T02:37:05.043Z,99.99
2023-06-07T02:39:35.433Z,99.99
2023-06-07T02:42:05.756Z,99.99
2023-06-07T02:44:36.003Z,99.99
2023-06-07T02:47:06.629Z,99.99
2023-06-07T02:49:37.394Z,99.99
2023-06-07T02:52:27.726Z,99.99
2023-06-07T02:54:57.964Z,99.99
2023-06-07T02:57:28.448Z,99.99
2023-06-07T02:59:58.664Z,99.99
2023-06-07T03:02:40.419Z,99.99
2023-06-07T03:05:11.574Z,99.99
2023-06-07T03:07:42.852Z,99.99
2023-06-07T03:10:14.909Z,99.99
2023-06-07T03:12:45.265Z,99.99
2023-06-07T03:15:15.628Z,99.99
2023-06-07T03:17:48.226Z,99.99
2023-06-07T03:20:20.423Z,99.99
2023-06-07T03:22:51.533Z,99.99
2023-06-07T03:25:24.113Z,99.99
2023-06-07T03:27:54.875Z,99.99
2023-06-07T03:30:35.458Z,99.99
2023-06-07T03:33:05.767Z,99.99
2023-06-07T03:35:38.152Z,99.99
2023-06-07T03:38:08.186Z,99.99
2023-06-07T03:40:38.253Z,99.99
2023-06-07T03:43:08.449Z,99.99
2023-06-07T03:45:38.909Z,99.99
2023-06-07T03:48:14.693Z,99.99
2023-06-07T03:50:44.902Z,99.99
2023-06-07T03:53:18.262Z,99.99
2023-06-07T03:55:51.362Z,99.99
2023-06-07T03:58:23.953Z,99.99
2023-06-07T04:00:54.813Z,99.99
2023-06-07T04:03:26.808Z,99.99
2023-06-07T04:06:03.026Z,99.99
2023-06-07T04:08:33.215Z,99.99
2023-06-07T04:11:03.400Z,99.99
2023-06-07T04:13:33.518Z,99.99
2023-06-07T04:16:03.998Z,99.99
2023-06-07T04:18:34.762Z,99.99
2023-06-07T04:21:05.223Z,99.99
2023-06-07T04:23:36.699Z,99.99
2023-06-07T04:26:08.705Z,99.99
2023-06-07T04:28:42.996Z,99.99
2023-06-07T04:31:15.471Z,99.99
2023-06-07T04:33:48.124Z,99.99
2023-06-07T04:36:21.279Z,99.99
2023-06-07T04:41:33.087Z,99.99
2023-06-07T04:44:07.694Z,99.99
2023-06-07T04:46:41.975Z,99.99
2023-06-07T04:49:19.901Z,99.99
2023-06-07T04:51:51.162Z,99.99
2023-06-07T04:54:22.776Z,99.99
2023-06-07T04:56:59.305Z,99.99
2023-06-07T04:59:36.960Z,99.99
2023-06-07T05:02:13.271Z,99.99
2023-06-07T05:04:45.254Z,99.99
2023-06-07T05:07:18.028Z,99.99
2023-06-07T05:09:53.072Z,99.99
2023-06-07T05:12:25.592Z,99.99
2023-06-07T05:14:55.974Z,99.99
2023-06-07T05:17:26.348Z,99.99
2023-06-07T05:19:57.939Z,99.99
2023-06-07T05:22:28.312Z,99.99
2023-06-07T05:24:58.498Z,99.99
2023-06-07T05:27:28.810Z,99.99
2023-06-07T05:29:58.972Z,99.99
2023-06-07T05:32:30.046Z,99.99
2023-06-07T05:35:00.331Z,99.99
2023-06-07T05:37:32.273Z,99.99
2023-06-07T05:40:03.614Z,99.99
2023-06-07T05:42:40.620Z,99.99
2023-06-07T05:45:12.214Z,99.99
2023-06-07T05:47:43.290Z,99.99
2023-06-07T05:50:15.140Z,99.99
2023-06-07T05:52:46.369Z,99.99
2023-06-07T05:55:17.217Z,99.99
2023-06-07T05:57:47.385Z,99.99
2023-06-07T06:00:19.055Z,99.99
2023-06-07T06:02:49.627Z,99.99
2023-06-07T06:05:20.757Z,99.99
2023-06-07T06:07:51.337Z,99.99
2023-06-07T06:10:21.583Z,99.99
2023-06-07T06:12:51.970Z,99.99
2023-06-07T06:15:22.135Z,99.99
2023-06-07T06:17:56.504Z,99.99
2023-06-07T06:20:26.677Z,99.99
2023-06-07T06:22:56.843Z,99.99
2023-06-07T06:25:28.077Z,99.99
2023-06-07T06:27:58.232Z,99.99
2023-06-07T06:30:29.552Z,99.99
2023-06-07T06:32:59.994Z,99.99
2023-06-07T06:35:30.773Z,99.99
2023-06-07T06:38:01.316Z,99.99
2023-06-07T06:40:31.469Z,99.99
2023-06-07T06:43:02.514Z,99.99
2023-06-07T06:45:47.577Z,99.99
2023-06-07T06:48:17.905Z,99.99
2023-06-07T06:50:50.260Z,99.99
2023-06-07T06:53:20.770Z,99.99
2023-06-07T06:55:51.061Z,99.99
2023-06-07T06:58:21.627Z,99.99
2023-06-07T07:00:51.420Z,99.99
2023-06-07T07:03:21.291Z,99.99
2023-06-07T07:05:51.650Z,99.99
2023-06-07T07:08:21.723Z,99.99
2023-06-07T07:10:53.506Z,99.99
2023-06-07T07:13:23.670Z,99.99
2023-06-07T07:15:53.801Z,99.99
2023-06-07T07:18:23.810Z,99.99
2023-06-07T07:20:54.641Z,99.99
2023-06-07T07:23:24.642Z,99.99
2023-06-07T07:25:54.537Z,99.99
2023-06-07T07:28:24.446Z,99.99
2023-06-07T07:30:54.690Z,99.99
2023-06-07T07:33:25.194Z,99.99
2023-06-07T07:35:55.791Z,99.99
2023-06-07T07:38:25.865Z,99.99
2023-06-07T07:40:55.975Z,99.99
2023-06-07T07:43:26.162Z,99.99
2023-06-07T07:45:56.461Z,99.99
2023-06-07T07:48:26.760Z,99.99
2023-06-07T07:50:57.591Z,99.99
2023-06-07T07:53:28.200Z,99.99
2023-06-07T07:55:58.457Z,99.99
2023-06-07T07:58:28.525Z,99.99
2023-06-07T08:00:58.667Z,99.99
2023-06-07T08:03:28.974Z,99.99
2023-06-07T08:05:59.742Z,99.99
2023-06-07T08:08:30.253Z,99.99
2023-06-07T08:11:00.876Z,99.99
2023-06-07T08:13:31.044Z,99.99
2023-06-07T08:16:01.084Z,99.99
2023-06-07T08:18:31.265Z,99.99
2023-06-07T08:21:01.360Z,99.99
2023-06-07T08:23:31.683Z,99.99
2023-06-07T08:26:04.324Z,99.99
2023-06-07T08:28:34.413Z,99.99
2023-06-07T08:31:06.256Z,99.99
2023-06-07T08:33:36.639Z,99.99
2023-06-07T08:36:07.302Z,99.99
2023-06-07T08:38:38.904Z,99.99
2023-06-07T08:41:09.064Z,99.99
2023-06-07T08:43:40.495Z,99.99
2023-06-07T08:46:11.078Z,99.99
2023-06-07T08:48:42.167Z,99.99
2023-06-07T08:51:13.137Z,99.99
2023-06-07T08:53:58.577Z,99.99
2023-06-07T08:56:31.763Z,99.99
2023-06-07T08:59:04.568Z,99.99
2023-06-07T09:01:39.711Z,99.99
2023-06-07T09:04:12.609Z,99.99
2023-06-07T09:06:42.864Z,99.99
2023-06-07T09:09:13.478Z,99.99
2023-06-07T09:11:43.413Z,99.99
2023-06-07T09:14:15.020Z,99.99
2023-06-07T09:16:55.904Z,99.99
2023-06-07T09:19:36.053Z,99.99
2023-06-07T09:22:07.787Z,99.99
2023-06-07T09:24:39.620Z,99.99
2023-06-07T09:27:13.199Z,99.99
2023-06-07T09:29:44.839Z,99.99
2023-06-07T09:32:28.241Z,99.99
2023-06-07T09:35:17.633Z,99.99
2023-06-07T09:37:48.479Z,99.99
2023-06-07T09:40:19.089Z,99.99
2023-06-07T09:42:57.917Z,99.99
2023-06-07T09:45:29.263Z,99.99
2023-06-07T09:48:10.152Z,99.99
2023-06-07T09:50:40.383Z,99.99
2023-06-07T09:53:11.531Z,99.99
2023-06-07T09:55:42.005Z,99.99
2023-06-07T09:58:22.707Z,99.99
2023-06-07T10:00:56.230Z,99.99
2023-06-07T10:03:29.582Z,99.99
2023-06-07T10:06:00.289Z,99.99
2023-06-07T10:08:30.574Z,99.99
2023-06-07T10:11:01.928Z,99.99
2023-06-07T10:13:32.436Z,99.99
2023-06-07T10:16:02.912Z,99.99
2023-06-07T10:18:33.844Z,99.99
2023-06-07T10:21:17.817Z,99.99
2023-06-07T10:23:56.809Z,99.99
2023-06-07T10:26:57.613Z,99.99
2023-06-07T10:29:41.844Z,99.99
2023-06-07T10:32:18.222Z,99.99
2023-06-07T10:34:49.283Z,99.99
2023-06-07T10:37:20.024Z,99.99
2023-06-07T10:39:51.298Z,99.99
2023-06-07T10:42:22.099Z,99.99
2023-06-07T10:44:53.074Z,99.99
2023-06-07T10:47:32.810Z,99.99
2023-06-07T10:50:03.093Z,99.99
2023-06-07T10:52:33.320Z,99.99
2023-06-07T10:55:23.258Z,99.99
2023-06-07T10:57:54.548Z,99.99
2023-06-07T11:00:32.721Z,99.99
2023-06-07T11:03:13.287Z,99.99
2023-06-07T11:05:58.453Z,99.99
2023-06-07T11:08:38.856Z,99.99
2023-06-07T11:11:43.754Z,99.99
2023-06-07T11:14:15.333Z,99.99
2023-06-07T11:16:45.598Z,99.99
2023-06-07T11:19:20.921Z,99.99
2023-06-07T11:22:02.661Z,99.99
2023-06-07T11:24:34.731Z,99.99
2023-06-07T11:27:05.152Z,99.99
2023-06-07T11:29:38.765Z,99.99
2023-06-07T11:32:10.043Z,99.99
2023-06-07T11:34:40.278Z,99.99
2023-06-07T11:37:18.774Z,99.99
2023-06-07T11:39:49.671Z,99.99
2023-06-07T11:42:20.079Z,99.99
2023-06-07T11:44:51.074Z,99.99
2023-06-07T11:47:22.648Z,99.99
2023-06-07T11:49:52.883Z,99.99
2023-06-07T11:52:24.744Z,99.99
2023-06-07T11:54:54.896Z,99.99
2023-06-07T11:57:25.072Z,99.99
2023-06-07T11:59:56.076Z,99.99
2023-06-07T12:02:26.972Z,99.99
2023-06-07T12:04:57.366Z,99.99
2023-06-07T12:07:35.115Z,99.99
2023-06-07T12:10:10.317Z,99.99
2023-06-07T12:12:41.782Z,99.99
2023-06-07T12:15:13.114Z,99.99
2023-06-07T12:17:44.628Z,99.99
2023-06-07T12:20:16.497Z,99.96
2023-06-07T12:22:46.694Z,99.66
2023-06-07T12:25:21.883Z,99.47
2023-06-07T12:27:52.556Z,99.52
2023-06-07T12:30:23.435Z,99.27
2023-06-07T12:33:01.412Z,98.76
2023-06-07T12:35:39.698Z,98.37
2023-06-07T12:38:10.350Z,98.12
2023-06-07T12:40:40.541Z,97.73
2023-06-07T12:43:10.800Z,96.63
2023-06-07T12:45:41.030Z,96.11
2023-06-07T12:48:11.839Z,96.02
2023-06-07T12:50:41.986Z,95.84
2023-06-07T12:53:12.153Z,96.19
2023-06-07T12:55:42.399Z,95.91
2023-06-07T12:58:12.471Z,95.57
2023-06-07T13:00:43.089Z,95.79
2023-06-07T13:03:14.481Z,95.58
2023-06-07T13:05:44.766Z,95.32
2023-06-07T13:08:15.895Z,95.45
2023-06-07T13:10:46.009Z,95.55
2023-06-07T13:13:19.180Z,95.00
2023-06-07T13:15:49.339Z,95.07
2023-06-07T13:18:20.298Z,94.05
2023-06-07T13:20:51.755Z,94.02
2023-06-07T13:23:21.802Z,93.93
2023-06-07T13:25:51.661Z,93.88
2023-06-07T13:28:21.498Z,92.70
2023-06-07T13:30:51.721Z,92.59
2023-06-07T13:33:21.391Z,93.31
2023-06-07T13:35:51.611Z,93.27
2023-06-07T13:38:22.230Z,92.91
2023-06-07T13:40:52.418Z,92.32
2023-06-07T13:43:31.048Z,91.74
2023-06-07T13:46:12.867Z,91.64
2023-06-07T13:48:43.654Z,92.24
2023-06-07T13:51:14.613Z,92.04
2023-06-07T13:53:48.503Z,92.21
2023-06-07T13:56:19.420Z,92.38
2023-06-07T13:58:49.542Z,92.43
2023-06-07T14:01:20.547Z,91.72
2023-06-07T14:03:52.214Z,91.14
2023-06-07T14:06:24.774Z,91.89
2023-06-07T14:08:54.985Z,92.15
2023-06-07T14:11:26.528Z,92.24
2023-06-07T14:13:56.651Z,92.10
2023-06-07T14:16:28.402Z,91.19
2023-06-07T14:18:59.790Z,90.30
2023-06-07T14:21:29.998Z,89.52
2023-06-07T14:24:00.107Z,89.51
2023-06-07T14:26:30.291Z,89.23
2023-06-07T14:29:00.549Z,87.42
2023-06-07T14:31:31.218Z,86.07
2023-06-07T14:34:01.591Z,86.29
2023-06-07T14:36:31.219Z,85.48
2023-06-07T14:39:02.360Z,85.51
2023-06-07T14:41:33.646Z,84.16
2023-06-07T14:44:03.795Z,81.95
2023-06-07T14:46:33.710Z,81.90
2023-06-07T14:49:04.044Z,81.15
2023-06-07T14:51:33.805Z,81.97
2023-06-07T14:54:06.030Z,82.21
2023-06-07T14:56:36.917Z,80.29
2023-06-07T14:59:06.507Z,82.17
2023-06-07T15:01:36.664Z,80.90
2023-06-07T15:04:07.035Z,81.27
2023-06-07T15:06:37.101Z,81.25
2023-06-07T15:09:11.359Z,79.83
2023-06-07T15:11:42.860Z,80.78
2023-06-07T15:14:12.534Z,80.34
2023-06-07T15:16:42.370Z,79.98
2023-06-07T15:19:12.450Z,80.55
2023-06-07T15:21:42.651Z,80.08
2023-06-07T15:24:14.667Z,79.71
2023-06-07T15:26:48.301Z,78.21
2023-06-07T15:29:17.955Z,78.42
2023-06-07T15:31:48.168Z,78.35
2023-06-07T15:34:18.452Z,77.48
2023-06-07T15:36:48.475Z,76.87
2023-06-07T15:39:18.512Z,77.76
2023-06-07T15:41:53.752Z,78.67
2023-06-07T15:44:23.935Z,76.95
2023-06-07T15:46:53.920Z,77.76
2023-06-07T15:49:23.501Z,77.16
2023-06-07T15:51:53.291Z,76.75
2023-06-07T15:54:42.779Z,77.54
2023-06-07T15:57:12.975Z,76.51
2023-06-07T15:59:43.058Z,77.38
2023-06-07T16:02:13.494Z,77.08
2023-06-07T16:04:43.967Z,75.93
2023-06-07T16:07:14.433Z,76.01
2023-06-07T16:09:44.566Z,75.69
2023-06-07T16:12:14.756Z,76.29
2023-06-07T16:14:45.664Z,75.32
2023-06-07T16:17:16.053Z,77.10
2023-06-07T16:19:46.571Z,77.25
2023-06-07T16:22:18.227Z,76.47
2023-06-07T16:24:48.291Z,76.27
2023-06-07T16:27:18.170Z,75.50
2023-06-07T16:29:47.778Z,75.11
2023-06-07T16:32:19.666Z,75.75
2023-06-07T16:34:49.909Z,76.44
2023-06-07T16:37:19.882Z,76.07
2023-06-07T16:39:50.001Z,75.07
2023-06-07T16:42:19.670Z,74.77
2023-06-07T16:44:49.450Z,74.60
2023-06-07T16:47:19.079Z,75.66
2023-06-07T16:49:49.129Z,73.51
2023-06-07T16:52:19.787Z,76.13
2023-06-07T16:54:49.834Z,76.70
2023-06-07T16:57:19.690Z,70.39
2023-06-07T16:59:49.599Z,69.83
2023-06-07T17:02:19.524Z,72.68
2023-06-07T17:04:49.938Z,73.40
2023-06-07T17:07:20.836Z,72.38
2023-06-07T17:09:50.796Z,76.83
2023-06-07T17:12:20.619Z,75.99
2023-06-07T17:14:50.587Z,77.19
2023-06-07T17:17:20.522Z,78.34
2023-06-07T17:19:50.108Z,78.43
2023-06-07T17:22:19.906Z,77.00
2023-06-07T17:24:49.494Z,78.18
2023-06-07T17:27:19.310Z,75.70
2023-06-07T17:29:48.880Z,76.40
2023-06-07T17:32:18.844Z,78.08
2023-06-07T17:34:48.682Z,77.71
2023-06-07T17:37:19.905Z,78.77
2023-06-07T17:39:50.107Z,69.38
2023-06-07T17:42:22.954Z,69.04
2023-06-07T17:44:54.524Z,72.24
2023-06-07T17:47:25.591Z,70.89
2023-06-07T17:49:55.723Z,75.43
2023-06-07T17:52:25.637Z,72.79
2023-06-07T17:54:55.537Z,75.65
2023-06-07T17:57:25.375Z,75.71
2023-06-07T17:59:56.094Z,73.35
2023-06-07T18:02:25.985Z,74.92
2023-06-07T18:04:56.040Z,73.28
2023-06-07T18:07:26.069Z,73.67
2023-06-07T18:09:56.647Z,74.94
2023-06-07T18:12:27.099Z,73.98
2023-06-07T18:14:57.207Z,73.81
2023-06-07T18:17:27.446Z,74.39
2023-06-07T18:19:57.619Z,73.79
2023-06-07T18:22:27.304Z,73.93
2023-06-07T18:24:57.120Z,76.84
2023-06-07T18:27:26.770Z,77.69
2023-06-07T18:29:56.604Z,78.21
2023-06-07T18:32:26.316Z,78.42
2023-06-07T18:34:56.133Z,78.88
2023-06-07T18:37:25.844Z,79.35
2023-06-07T18:39:55.647Z,79.71
2023-06-07T18:42:25.377Z,80.55
2023-06-07T18:44:55.287Z,81.04
2023-06-07T18:47:26.484Z,81.48
2023-06-07T18:49:56.809Z,81.65
2023-06-07T18:52:27.075Z,81.92
2023-06-07T18:54:57.285Z,81.39
2023-06-07T18:57:26.968Z,82.21
2023-06-07T18:59:57.027Z,82.15
2023-06-07T19:02:26.956Z,81.82
2023-06-07T19:04:57.072Z,81.77
2023-06-07T19:07:27.180Z,80.95
2023-06-07T19:09:57.197Z,80.76
2023-06-07T19:12:29.136Z,81.02
2023-06-07T19:14:59.621Z,81.07
2023-06-07T19:17:29.718Z,80.94
2023-06-07T19:20:01.734Z,80.45
2023-06-07T19:22:32.047Z,80.46
2023-06-07T19:25:02.257Z,80.71
2023-06-07T19:27:31.986Z,81.45
2023-06-07T19:30:02.126Z,80.96
2023-06-07T19:32:32.234Z,81.28
2023-06-07T19:35:05.836Z,82.18
2023-06-07T19:37:57.117Z,81.59
2023-06-07T19:40:29.696Z,82.32
2023-06-07T19:42:59.944Z,82.62
2023-06-07T19:45:30.124Z,83.01
2023-06-07T19:48:00.682Z,83.56
2023-06-07T19:50:32.092Z,83.64
2023-06-07T19:53:05.362Z,84.05
2023-06-07T19:55:35.957Z,84.16
2023-06-07T19:58:06.357Z,84.40
2023-06-07T20:00:36.955Z,84.62
2023-06-07T20:03:26.579Z,84.41
2023-06-07T20:05:56.806Z,84.25
2023-06-07T20:08:27.173Z,84.32
2023-06-07T20:10:57.286Z,84.52
2023-06-07T20:13:27.195Z,84.37
2023-06-07T20:15:57.316Z,84.45
2023-06-07T20:18:27.231Z,85.09
2023-06-07T20:20:57.296Z,85.53
2023-06-07T20:23:27.108Z,85.84
2023-06-07T20:25:58.912Z,85.97
2023-06-07T20:28:29.630Z,86.18
2023-06-07T20:31:00.855Z,86.58
2023-06-07T20:33:31.573Z,86.73
2023-06-07T20:36:03.346Z,86.77
2023-06-07T20:38:33.603Z,86.86
2023-06-07T20:41:03.258Z,86.98
2023-06-07T20:43:33.088Z,87.29
2023-06-07T20:46:02.979Z,87.38
2023-06-07T20:48:33.762Z,87.29
2023-06-07T20:51:03.960Z,87.52
2023-06-07T20:53:33.643Z,87.85
2023-06-07T20:56:03.460Z,88.05
2023-06-07T20:58:33.197Z,88.12
2023-06-07T21:01:03.290Z,88.23
2023-06-07T21:03:33.363Z,88.52
2023-06-07T21:06:03.451Z,88.48
2023-06-07T21:08:33.750Z,88.74
2023-06-07T21:11:05.042Z,88.76
2023-06-07T21:13:35.494Z,88.69
2023-06-07T21:16:05.225Z,88.32
2023-06-07T21:18:35.384Z,88.24
2023-06-07T21:21:05.048Z,88.81
2023-06-07T21:23:35.182Z,89.56
2023-06-07T21:26:05.073Z,90.52
2023-06-07T21:28:35.198Z,90.70
2023-06-07T21:31:04.941Z,89.60
2023-06-07T21:33:34.749Z,89.01
2023-06-07T21:36:04.800Z,88.72
2023-06-07T21:38:35.297Z,88.74
2023-06-07T21:41:05.465Z,88.44
2023-06-07T21:43:35.606Z,88.47
2023-06-07T21:46:05.671Z,88.44
2023-06-07T21:48:38.750Z,88.65
2023-06-07T21:51:09.011Z,88.97
2023-06-07T21:53:38.708Z,88.86
2023-06-07T21:56:08.843Z,88.75
2023-06-07T21:58:39.050Z,88.55
2023-06-07T22:01:09.473Z,88.64
2023-06-07T22:03:39.674Z,88.68
2023-06-07T22:06:09.739Z,88.83
2023-06-07T22:08:40.151Z,88.87
2023-06-07T22:11:10.672Z,89.02
2023-06-07T22:13:41.785Z,89.18
2023-06-07T22:16:12.019Z,89.23
2023-06-07T22:18:42.888Z,89.23
2023-06-07T22:21:15.213Z,89.24
2023-06-07T22:23:45.516Z,89.31
2023-06-07T22:26:17.559Z,89.33
2023-06-07T22:28:48.549Z,89.38
2023-06-07T22:31:19.706Z,89.29
2023-06-07T22:33:52.735Z,89.27
2023-06-07T22:36:23.470Z,89.40
2023-06-07T22:38:53.702Z,89.68
2023-06-07T22:41:24.244Z,90.14
2023-06-07T22:43:54.455Z,90.54
2023-06-07T22:46:25.907Z,90.86
2023-06-07T22:48:59.808Z,91.41
2023-06-07T22:51:35.327Z,92.10
2023-06-07T22:54:05.627Z,92.67
2023-06-07T22:56:35.959Z,93.11
2023-06-07T22:59:06.478Z,93.35
2023-06-07T23:01:37.126Z,93.58
2023-06-07T23:04:07.682Z,93.87
2023-06-07T23:06:39.737Z,93.99
2023-06-07T23:09:09.803Z,94.27
2023-06-07T23:11:40.414Z,94.75
2023-06-07T23:14:10.636Z,94.73
2023-06-07T23:16:41.372Z,94.89
2023-06-07T23:19:11.537Z,94.87
2023-06-07T23:21:47.262Z,94.86
2023-06-07T23:24:23.738Z,94.91
2023-06-07T23:26:55.967Z,94.85
2023-06-07T23:29:27.078Z,94.88
2023-06-07T23:31:58.074Z,95.15
2023-06-07T23:34:28.253Z,95.23
2023-06-07T23:36:58.460Z,95.59
2023-06-07T23:39:28.882Z,95.79
2023-06-07T23:42:02.692Z,95.66
2023-06-07T23:44:34.413Z,95.67
2023-06-07T23:47:04.667Z,95.92
2023-06-07T23:49:36.377Z,95.78
2023-06-07T23:52:07.227Z,96.12
2023-06-07T23:54:37.389Z,96.70
2023-06-07T23:57:09.361Z,96.69
2023-06-07T23:59:39.547Z,96.54
